Time;durP1;ratioP1;P1;durP2;ratioP2;P2;SDS_P1;SDS_P2;PMS_P1;PMS_P2;Temp;Humidity;BMP_temperature;BMP_pressure;BME280_temperature;BME280_humidity;BME280_pressure;Samples;Min_cycle;Max_cycle;Signal;HPM_P1;HPM_P2
2021/11/16 00:01:13;;;;;;;69.70;30.20;;;5.10;99.90;;;;;;5022826;28;20085;-84
2021/11/16 00:03:38;;;;;;;69.78;30.88;;;5.10;99.90;;;;;;5028536;28;20040;-83
2021/11/16 00:06:04;;;;;;;70.57;29.60;;;5.10;99.90;;;;;;5019870;28;20417;-83
2021/11/16 00:08:30;;;;;;;76.35;31.45;;;5.10;99.90;;;;;;5027743;28;20389;-82
2021/11/16 00:10:55;;;;;;;76.15;29.67;;;5.10;99.90;;;;;;5016318;28;20160;-81
2021/11/16 00:13:22;;;;;;;74.55;30.95;;;5.10;99.90;;;;;;5013011;28;20168;-82
2021/11/16 00:15:47;;;;;;;74.72;30.95;;;5.10;99.90;;;;;;5019846;28;20100;-82
2021/11/16 00:18:16;;;;;;;78.85;32.88;;;5.10;99.90;;;;;;5022252;28;20483;-81
2021/11/16 00:20:44;;;;;;;67.53;28.85;;;5.00;99.90;;;;;;5044284;28;20048;-81
2021/11/16 00:23:19;;;;;;;72.53;31.25;;;5.00;99.90;;;;;;5041448;28;20044;-82
2021/11/16 00:25:51;;;;;;;64.50;28.27;;;5.00;99.90;;;;;;5038645;28;20022;-82
2021/11/16 00:28:17;;;;;;;72.88;30.52;;;5.00;99.90;;;;;;5022511;28;20029;-82
2021/11/16 00:30:43;;;;;;;70.68;29.80;;;5.00;99.90;;;;;;5009803;28;20474;-83
2021/11/16 00:33:10;;;;;;;65.30;28.08;;;5.00;99.90;;;;;;5021965;28;20039;-83
2021/11/16 00:35:39;;;;;;;67.68;28.65;;;5.00;99.90;;;;;;5030663;28;20025;-82
2021/11/16 00:38:11;;;;;;;62.55;28.75;;;4.90;99.90;;;;;;5022455;28;20121;-81
2021/11/16 00:40:38;;;;;;;69.60;30.73;;;5.00;99.90;;;;;;5017025;28;20034;-82
2021/11/16 00:43:07;;;;;;;70.10;30.30;;;5.00;99.90;;;;;;5023430;28;20045;-82
2021/11/16 00:45:35;;;;;;;73.82;30.88;;;5.00;99.90;;;;;;5039847;28;20064;-81
2021/11/16 00:48:01;;;;;;;71.95;29.05;;;5.10;99.90;;;;;;5022804;28;20049;-81
2021/11/16 00:50:26;;;;;;;82.00;30.85;;;5.10;99.90;;;;;;5025767;28;20072;-84
2021/11/16 00:52:52;;;;;;;78.40;32.70;;;5.10;99.90;;;;;;5022402;28;20479;-82
2021/11/16 00:55:18;;;;;;;77.35;32.00;;;5.20;99.90;;;;;;5031637;28;20276;-81
2021/11/16 00:57:45;;;;;;;73.38;32.33;;;5.30;99.90;;;;;;5026630;28;20116;-81
2021/11/16 01:00:13;;;;;;;79.28;32.33;;;5.30;99.90;;;;;;5025917;28;20044;-81
2021/11/16 01:02:38;;;;;;;80.43;32.95;;;5.30;99.90;;;;;;5022200;28;20522;-83
2021/11/16 01:05:05;;;;;;;81.05;33.17;;;5.40;99.90;;;;;;5027374;28;20049;-82
2021/11/16 01:07:31;;;;;;;93.55;33.53;;;5.40;99.90;;;;;;5019877;28;20103;-83
2021/11/16 01:09:58;;;;;;;98.70;34.50;;;5.40;99.90;;;;;;5022861;28;20097;-81
2021/11/16 01:12:25;;;;;;;86.13;34.20;;;5.50;99.90;;;;;;5043415;28;20030;-82
2021/11/16 01:14:51;;;;;;;84.25;34.85;;;5.50;99.90;;;;;;5032769;28;20068;-82
2021/11/16 01:17:16;;;;;;;88.05;35.83;;;5.50;99.90;;;;;;5029587;28;20037;-81
2021/11/16 01:19:46;;;;;;;80.25;32.30;;;5.50;99.90;;;;;;5023346;28;20062;-81
2021/11/16 01:22:12;;;;;;;85.40;33.22;;;5.50;99.90;;;;;;5032931;28;20059;-82
2021/11/16 01:24:39;;;;;;;83.05;32.55;;;5.50;99.90;;;;;;5026119;28;20657;-82
2021/11/16 01:27:07;;;;;;;82.75;34.28;;;5.50;99.90;;;;;;5036834;28;20048;-82
2021/11/16 01:29:34;;;;;;;81.30;31.95;;;5.50;99.90;;;;;;5035991;28;20029;-83
2021/11/16 01:32:00;;;;;;;88.55;33.53;;;5.40;99.90;;;;;;5048705;28;20036;-83
2021/11/16 01:34:29;;;;;;;85.25;32.53;;;5.40;99.90;;;;;;5044978;28;20123;-83
2021/11/16 01:36:55;;;;;;;90.80;34.75;;;5.40;99.90;;;;;;5029451;28;20053;-83
2021/11/16 01:39:21;;;;;;;87.22;33.15;;;5.50;99.90;;;;;;5026440;28;20053;-83
2021/11/16 01:41:47;;;;;;;84.88;32.92;;;5.50;99.90;;;;;;5024435;28;20034;-82
2021/11/16 01:44:12;;;;;;;90.70;33.40;;;5.60;99.90;;;;;;5020932;28;20052;-83
2021/11/16 01:46:38;;;;;;;81.03;33.65;;;5.60;99.90;;;;;;5024873;28;20041;-82
2021/11/16 01:49:04;;;;;;;96.72;35.28;;;5.70;99.90;;;;;;5025580;28;20033;-82
2021/11/16 01:51:30;;;;;;;86.35;35.78;;;5.70;99.90;;;;;;5024882;28;20532;-82
2021/11/16 01:54:02;;;;;;;90.85;34.85;;;5.70;99.90;;;;;;5026213;28;20048;-82
2021/11/16 01:56:29;;;;;;;88.13;33.60;;;5.70;99.90;;;;;;5022248;28;20029;-81
2021/11/16 01:58:58;;;;;;;79.97;31.02;;;5.60;99.90;;;;;;5017414;28;20442;-82
2021/11/16 02:01:23;;;;;;;88.82;32.58;;;5.60;99.90;;;;;;5014754;28;20053;-84
2021/11/16 02:03:49;;;;;;;81.43;32.30;;;5.60;99.90;;;;;;5016697;28;20033;-83
2021/11/16 02:06:18;;;;;;;95.20;36.33;;;5.60;99.90;;;;;;5025729;28;20033;-83
2021/11/16 02:08:45;;;;;;;86.25;31.35;;;5.60;99.90;;;;;;5028081;28;20017;-83
2021/11/16 02:11:11;;;;;;;83.78;33.05;;;5.60;99.90;;;;;;5018193;28;20072;-82
2021/11/16 02:13:36;;;;;;;84.88;33.20;;;5.60;99.90;;;;;;5029376;28;20061;-81
2021/11/16 02:16:02;;;;;;;90.07;34.97;;;5.70;99.90;;;;;;5020667;28;20046;-82
2021/11/16 02:18:27;;;;;;;91.15;33.63;;;5.70;99.90;;;;;;5016202;28;20545;-82
2021/11/16 02:20:53;;;;;;;81.45;31.67;;;5.70;99.90;;;;;;5026693;28;20474;-82
2021/11/16 02:23:19;;;;;;;84.75;33.03;;;5.70;99.90;;;;;;5019841;28;20042;-82
2021/11/16 02:25:48;;;;;;;81.97;32.72;;;5.70;99.90;;;;;;5019657;28;20055;-82
2021/11/16 02:28:18;;;;;;;86.13;32.65;;;5.80;99.90;;;;;;5026171;28;20025;-82
2021/11/16 02:30:45;;;;;;;88.43;33.30;;;5.80;99.90;;;;;;5016404;28;20025;-82
2021/11/16 02:33:11;;;;;;;92.43;34.88;;;5.80;99.90;;;;;;5015017;28;20064;-82
2021/11/16 02:35:37;;;;;;;89.18;32.40;;;5.80;99.90;;;;;;5021296;28;20669;-82
2021/11/16 02:38:03;;;;;;;87.40;32.63;;;5.80;99.90;;;;;;5026534;28;20038;-82
2021/11/16 02:40:29;;;;;;;95.15;33.85;;;5.90;99.90;;;;;;5030894;28;20042;-82
2021/11/16 02:42:55;;;;;;;88.93;31.63;;;5.90;99.90;;;;;;5013601;28;20030;-83
2021/11/16 02:45:22;;;;;;;83.75;31.83;;;5.90;99.90;;;;;;5021863;28;20591;-83
2021/11/16 02:47:47;;;;;;;78.85;28.92;;;5.90;99.90;;;;;;5031526;28;20112;-84
2021/11/16 02:50:15;;;;;;;92.50;33.00;;;5.90;99.90;;;;;;5032373;28;20113;-83
2021/11/16 02:52:41;;;;;;;83.45;32.80;;;5.90;99.90;;;;;;5027900;28;20033;-83
2021/11/16 02:55:07;;;;;;;96.22;33.85;;;5.90;99.90;;;;;;5025594;28;20521;-83
2021/11/16 02:57:34;;;;;;;87.63;32.78;;;5.90;99.90;;;;;;5015984;28;20026;-83
2021/11/16 03:00:01;;;;;;;86.15;31.30;;;5.90;99.90;;;;;;5017936;28;20065;-83
2021/11/16 03:02:26;;;;;;;90.97;32.75;;;5.90;99.90;;;;;;5024578;28;20445;-83
2021/11/16 03:04:52;;;;;;;88.43;35.28;;;5.90;99.90;;;;;;5013098;28;20069;-84
2021/11/16 03:07:39;;;;;;;96.20;31.58;;;5.90;99.90;;;;;;5017972;28;20469;-81
2021/11/16 03:10:05;;;;;;;91.63;33.70;;;5.90;99.90;;;;;;5016365;28;20033;-84
2021/11/16 03:12:31;;;;;;;93.97;31.70;;;5.90;99.90;;;;;;5018188;28;20039;-82
2021/11/16 03:14:58;;;;;;;91.88;31.85;;;5.90;99.90;;;;;;5027628;28;20038;-83
2021/11/16 03:17:25;;;;;;;106.03;35.15;;;6.00;99.90;;;;;;5014750;28;20072;-84
2021/11/16 03:19:51;;;;;;;96.88;33.08;;;6.00;99.90;;;;;;5017559;28;20108;-83
2021/11/16 03:22:16;;;;;;;93.32;33.85;;;6.00;99.90;;;;;;5018897;28;20129;-83
2021/11/16 03:24:42;;;;;;;94.00;32.67;;;6.00;99.90;;;;;;5018060;28;20041;-83
2021/11/16 03:27:11;;;;;;;96.05;33.28;;;6.00;99.90;;;;;;5030233;28;20030;-81
2021/11/16 03:29:43;;;;;;;101.13;32.83;;;6.00;99.90;;;;;;5034771;28;20030;-82
2021/11/16 03:32:11;;;;;;;97.97;33.78;;;6.00;99.90;;;;;;5012178;28;20112;-82
2021/11/16 03:34:40;;;;;;;108.35;34.78;;;6.00;99.90;;;;;;5027401;28;20045;-82
2021/11/16 03:37:06;;;;;;;95.03;35.33;;;6.00;99.90;;;;;;5023968;28;20097;-83
2021/11/16 03:39:32;;;;;;;94.65;34.17;;;6.00;99.90;;;;;;5022081;28;20100;-82
2021/11/16 03:41:58;;;;;;;92.30;32.15;;;6.00;99.90;;;;;;5013613;28;20066;-83
2021/11/16 03:44:25;;;;;;;83.65;30.15;;;6.00;99.90;;;;;;5017582;28;20482;-82
2021/11/16 03:46:51;;;;;;;112.95;35.78;;;6.00;99.90;;;;;;5022430;28;20026;-82
2021/11/16 03:49:17;;;;;;;92.28;34.10;;;6.00;99.90;;;;;;5032667;28;20026;-83
2021/11/16 03:51:44;;;;;;;93.93;32.13;;;6.00;99.90;;;;;;5028823;28;20047;-83
2021/11/16 03:54:11;;;;;;;95.18;32.10;;;6.00;99.90;;;;;;5033288;28;20033;-82
2021/11/16 03:56:37;;;;;;;89.03;31.25;;;6.00;99.90;;;;;;5014572;28;20438;-82
2021/11/16 03:59:04;;;;;;;85.25;31.35;;;6.00;99.90;;;;;;5019685;28;20045;-82
2021/11/16 04:01:30;;;;;;;88.90;31.48;;;6.00;99.90;;;;;;5018104;28;20747;-84
2021/11/16 04:03:56;;;;;;;88.55;31.83;;;6.00;99.90;;;;;;5024632;28;20034;-81
2021/11/16 04:06:23;;;;;;;86.63;31.17;;;6.00;99.90;;;;;;5017189;28;20104;-82
2021/11/16 04:08:48;;;;;;;92.18;32.60;;;6.00;99.90;;;;;;5023374;28;20061;-84
2021/11/16 04:11:14;;;;;;;87.07;31.20;;;6.00;99.90;;;;;;5020605;28;20066;-81
2021/11/16 04:13:39;;;;;;;97.22;31.40;;;6.00;99.90;;;;;;5027420;28;20041;-82
2021/11/16 04:16:06;;;;;;;92.28;30.35;;;6.00;99.90;;;;;;5022056;28;20038;-82
2021/11/16 04:18:33;;;;;;;81.88;28.85;;;5.90;99.90;;;;;;5029302;28;20055;-82
2021/11/16 04:20:59;;;;;;;80.10;30.70;;;6.00;99.90;;;;;;5029654;28;20041;-82
2021/11/16 04:23:25;;;;;;;85.50;29.33;;;5.90;99.90;;;;;;5028620;28;20044;-82
2021/11/16 04:25:52;;;;;;;74.95;30.25;;;5.90;99.90;;;;;;5028455;28;20030;-82
2021/11/16 04:28:18;;;;;;;87.80;29.95;;;5.90;99.90;;;;;;5016831;28;20490;-82
2021/11/16 04:30:45;;;;;;;83.53;30.35;;;5.90;99.90;;;;;;5019369;28;20042;-82
2021/11/16 04:33:13;;;;;;;87.75;32.00;;;5.90;99.90;;;;;;5030300;28;20033;-82
2021/11/16 04:35:38;;;;;;;87.47;31.17;;;5.90;99.90;;;;;;5021880;28;20097;-82
2021/11/16 04:38:06;;;;;;;94.43;31.95;;;5.90;99.90;;;;;;5022763;28;20109;-82
2021/11/16 04:40:37;;;;;;;96.35;33.80;;;5.80;99.90;;;;;;5015711;28;20029;-81
2021/11/16 04:43:07;;;;;;;98.75;31.95;;;5.80;99.90;;;;;;5016080;28;20025;-83
2021/11/16 04:45:34;;;;;;;93.35;31.67;;;5.80;99.90;;;;;;5026227;28;20159;-81
2021/11/16 04:48:17;;;;;;;85.15;29.75;;;5.80;99.90;;;;;;5028832;28;20100;-82
2021/11/16 04:51:16;;;;;;;;;;;5.80;99.90;;;;;;5022555;28;20056;-82
2021/11/16 04:54:14;;;;;;;105.15;31.17;;;5.80;99.90;;;;;;5029560;28;19913;-82
2021/11/16 04:59:39;;;;;;;101.60;32.22;;;5.80;99.90;;;;;;5034301;28;20037;-82
2021/11/16 05:04:51;;;;;;;89.40;30.65;;;5.80;99.90;;;;;;5024445;28;20036;-82
2021/11/16 05:07:18;;;;;;;84.10;30.58;;;5.80;99.90;;;;;;5027519;28;20029;-82
2021/11/16 05:09:47;;;;;;;76.88;27.65;;;5.70;99.90;;;;;;5030401;28;20026;-82
2021/11/16 05:12:13;;;;;;;74.15;28.23;;;5.80;99.90;;;;;;5022861;28;20026;-82
2021/11/16 05:14:39;;;;;;;79.35;30.40;;;5.80;99.90;;;;;;5017956;28;20088;-83
2021/11/16 05:17:04;;;;;;;84.20;30.23;;;5.80;99.90;;;;;;5025500;28;20168;-83
2021/11/16 05:19:30;;;;;;;85.80;31.75;;;5.80;99.90;;;;;;5029185;28;20423;-83
2021/11/16 05:21:56;;;;;;;97.47;31.75;;;5.80;99.90;;;;;;5029261;28;20033;-83
2021/11/16 05:24:24;;;;;;;85.05;28.67;;;5.80;99.90;;;;;;5033028;28;20037;-83
2021/11/16 05:26:51;;;;;;;76.20;28.45;;;5.80;99.90;;;;;;5034382;28;20032;-83
2021/11/16 05:29:16;;;;;;;77.78;29.48;;;5.80;99.90;;;;;;5028070;28;20433;-82
2021/11/16 05:31:42;;;;;;;85.45;29.90;;;5.80;99.90;;;;;;5022576;28;20038;-82
2021/11/16 05:34:07;;;;;;;83.80;30.58;;;5.80;99.90;;;;;;5014524;28;20398;-82
2021/11/16 05:36:33;;;;;;;76.88;28.27;;;5.80;99.90;;;;;;5031612;28;20033;-82
2021/11/16 05:38:58;;;;;;;88.15;27.80;;;5.80;99.90;;;;;;5037985;28;20112;-82
2021/11/16 05:41:24;;;;;;;86.78;30.13;;;5.80;99.90;;;;;;5034812;28;20083;-83
2021/11/16 05:43:50;;;;;;;71.57;29.55;;;5.80;99.90;;;;;;5036634;28;20021;-82
2021/11/16 05:46:20;;;;;;;83.00;29.90;;;5.80;99.90;;;;;;5033215;28;20038;-83
2021/11/16 05:48:47;;;;;;;84.00;29.20;;;5.80;99.90;;;;;;5024432;28;20091;-82
2021/11/16 05:51:13;;;;;;;86.63;29.05;;;5.80;99.90;;;;;;5028663;28;20030;-82
2021/11/16 05:53:40;;;;;;;78.97;29.13;;;5.80;99.90;;;;;;5020363;28;20100;-82
2021/11/16 05:56:06;;;;;;;85.53;29.48;;;5.80;99.90;;;;;;5034581;28;20037;-81
2021/11/16 05:58:33;;;;;;;78.25;28.88;;;5.80;99.90;;;;;;5019236;28;20033;-82
2021/11/16 06:00:58;;;;;;;87.03;30.48;;;5.80;99.90;;;;;;5017623;28;20041;-85
2021/11/16 06:03:24;;;;;;;84.07;31.35;;;5.80;99.90;;;;;;5019550;28;20029;-81
2021/11/16 06:05:50;;;;;;;93.95;32.08;;;5.80;99.90;;;;;;5031424;28;20661;-82
2021/11/16 06:08:20;;;;;;;85.35;28.33;;;5.80;99.90;;;;;;5025010;28;20030;-82
2021/11/16 06:10:46;;;;;;;86.05;31.58;;;5.80;99.90;;;;;;5020699;28;20507;-83
2021/11/16 06:13:11;;;;;;;78.53;31.30;;;5.80;99.90;;;;;;5018285;28;20049;-84
2021/11/16 06:15:37;;;;;;;81.30;31.23;;;5.80;99.90;;;;;;5023772;28;20073;-83
2021/11/16 06:18:03;;;;;;;78.78;30.00;;;5.80;99.90;;;;;;5026131;28;20029;-84
2021/11/16 06:20:31;;;;;;;85.63;31.08;;;5.80;99.90;;;;;;5022140;28;20029;-81
2021/11/16 06:22:57;;;;;;;75.68;28.73;;;5.80;99.90;;;;;;5035436;28;20053;-81
2021/11/16 06:25:23;;;;;;;89.60;30.60;;;5.80;99.90;;;;;;5016921;28;20025;-82
2021/11/16 06:27:49;;;;;;;88.63;30.75;;;5.80;99.90;;;;;;5031739;28;20032;-83
2021/11/16 06:30:15;;;;;;;83.45;30.27;;;5.70;99.90;;;;;;5033743;28;20060;-83
2021/11/16 06:32:41;;;;;;;91.07;33.28;;;5.70;99.90;;;;;;5020561;28;20037;-83
2021/11/16 06:35:14;;;;;;;88.90;32.38;;;5.70;99.90;;;;;;5021888;28;20078;-83
2021/11/16 06:37:39;;;;;;;81.72;30.27;;;5.70;99.90;;;;;;5028078;28;20029;-83
2021/11/16 06:40:05;;;;;;;80.72;30.50;;;5.70;99.90;;;;;;5017725;28;20029;-81
2021/11/16 06:42:31;;;;;;;78.93;29.92;;;5.70;99.90;;;;;;5038209;28;20014;-81
2021/11/16 06:44:57;;;;;;;76.57;29.45;;;5.70;99.90;;;;;;5027204;28;20056;-81
2021/11/16 06:47:22;;;;;;;83.00;31.05;;;5.70;99.90;;;;;;5035812;28;20033;-82
2021/11/16 06:49:49;;;;;;;88.40;30.23;;;5.80;99.90;;;;;;5032791;28;20072;-83
2021/11/16 06:52:15;;;;;;;80.93;30.45;;;5.70;99.90;;;;;;5029201;28;20037;-82
2021/11/16 06:54:41;;;;;;;76.45;28.92;;;5.80;99.90;;;;;;5033085;28;20033;-83
2021/11/16 06:57:07;;;;;;;78.63;29.83;;;5.80;99.90;;;;;;5029497;28;20032;-82
2021/11/16 06:59:33;;;;;;;75.80;29.15;;;5.70;99.90;;;;;;5028319;28;20017;-83
2021/11/16 07:01:59;;;;;;;83.65;30.63;;;5.70;99.90;;;;;;5029346;28;20037;-81
2021/11/16 07:04:33;;;;;;;83.95;32.20;;;5.70;99.90;;;;;;5028011;28;20481;-82
2021/11/16 07:06:59;;;;;;;77.45;28.85;;;5.70;99.90;;;;;;5030401;28;20033;-82
2021/11/16 07:09:30;;;;;;;75.72;30.08;;;5.70;99.90;;;;;;5013018;28;20032;-81
2021/11/16 07:11:55;;;;;;;74.95;28.85;;;5.70;99.90;;;;;;5024962;28;20044;-82
2021/11/16 07:14:26;;;;;;;81.82;29.52;;;5.70;99.90;;;;;;5013083;28;20045;-82
2021/11/16 07:16:54;;;;;;;80.68;30.17;;;5.70;99.90;;;;;;5029312;28;20474;-82
2021/11/16 07:19:55;;;;;;;79.63;31.13;;;5.80;99.90;;;;;;5028891;28;20037;-82
2021/11/16 07:22:23;;;;;;;74.68;29.08;;;5.80;99.90;;;;;;5028482;28;20113;-82
2021/11/16 07:24:56;;;;;;;78.18;29.60;;;5.80;99.90;;;;;;5027066;28;20441;-83
2021/11/16 07:27:32;;;;;;;73.95;27.85;;;5.80;99.90;;;;;;5028505;28;20026;-82
2021/11/16 07:29:58;;;;;;;75.43;31.05;;;5.80;99.90;;;;;;5028272;28;20615;-82
2021/11/16 07:32:29;;;;;;;75.15;31.75;;;5.90;99.90;;;;;;5028112;28;20034;-83
2021/11/16 07:35:02;;;;;;;74.18;30.10;;;5.90;99.90;;;;;;5028677;28;20018;-83
2021/11/16 07:37:33;;;;;;;67.78;28.90;;;5.90;99.90;;;;;;5027794;28;20421;-83
2021/11/16 07:40:03;;;;;;;65.25;27.40;;;5.90;99.90;;;;;;5029613;28;20470;-83
2021/11/16 07:42:34;;;;;;;69.63;29.55;;;5.90;99.90;;;;;;5020219;28;20034;-84
2021/11/16 07:45:12;;;;;;;75.45;30.35;;;6.00;99.90;;;;;;5019315;28;20405;-81
2021/11/16 07:47:50;;;;;;;65.10;27.90;;;6.00;99.90;;;;;;5026359;28;20099;-82
2021/11/16 07:50:21;;;;;;;66.65;29.05;;;6.00;99.90;;;;;;5022235;28;20120;-82
2021/11/16 07:52:48;;;;;;;57.50;26.55;;;6.00;99.90;;;;;;5016736;28;20046;-82
2021/11/16 07:55:26;;;;;;;52.80;25.80;;;6.10;99.90;;;;;;5025640;28;20033;-82
2021/11/16 07:57:53;;;;;;;56.25;26.42;;;6.10;99.90;;;;;;5019129;28;20030;-83
2021/11/16 08:00:27;;;;;;;52.13;25.45;;;6.10;99.90;;;;;;5018448;28;20577;-83
2021/11/16 08:03:03;;;;;;;53.17;24.48;;;6.10;99.90;;;;;;5011111;28;20033;-83
2021/11/16 08:05:42;;;;;;;46.65;22.58;;;6.10;99.90;;;;;;5013552;28;20117;-82
2021/11/16 08:10:50;;;;;;;43.97;23.45;;;6.20;99.90;;;;;;5020182;28;20080;-83
2021/11/16 08:13:19;;;;;;;42.10;22.30;;;6.20;99.90;;;;;;5037109;28;20065;-84
2021/11/16 08:15:45;;;;;;;44.13;23.65;;;6.20;99.90;;;;;;5023443;28;20075;-83
2021/11/16 08:18:14;;;;;;;44.13;23.48;;;6.30;99.90;;;;;;5040903;28;20039;-83
2021/11/16 08:20:41;;;;;;;45.70;22.35;;;6.30;99.90;;;;;;5029813;28;20032;-83
2021/11/16 08:23:08;;;;;;;49.08;23.88;;;6.30;99.90;;;;;;5027849;28;20470;-83
2021/11/16 08:25:36;;;;;;;45.42;22.70;;;6.40;99.90;;;;;;5042621;28;20082;-82
2021/11/16 08:28:04;;;;;;;44.75;22.33;;;6.40;99.90;;;;;;5041664;28;20026;-82
2021/11/16 08:30:35;;;;;;;47.55;23.92;;;6.40;99.90;;;;;;5040513;28;20059;-80
2021/11/16 08:33:02;;;;;;;44.70;24.40;;;6.40;99.90;;;;;;5017414;28;20418;-80
2021/11/16 08:35:28;;;;;;;43.53;23.90;;;6.40;99.90;;;;;;5010123;28;20037;-80
2021/11/16 08:38:00;;;;;;;42.72;22.10;;;6.40;99.90;;;;;;5006291;28;20683;-81
2021/11/16 08:40:33;;;;;;;38.72;20.52;;;6.50;99.90;;;;;;5023125;28;20092;-80
2021/11/16 08:43:12;;;;;;;45.22;24.40;;;6.50;99.90;;;;;;5025543;28;20025;-80
2021/11/16 08:45:38;;;;;;;41.65;22.13;;;6.60;99.90;;;;;;5021025;28;20026;-80
2021/11/16 08:48:13;;;;;;;38.40;21.55;;;6.60;99.90;;;;;;5012051;28;20056;-79
2021/11/16 08:50:46;;;;;;;38.00;21.15;;;6.70;99.90;;;;;;5020967;28;20229;-79
2021/11/16 08:53:15;;;;;;;47.53;22.30;;;6.70;99.90;;;;;;5018584;28;20069;-79
2021/11/16 08:55:42;;;;;;;39.50;20.95;;;6.70;99.90;;;;;;5012439;28;20029;-80
2021/11/16 08:58:14;;;;;;;42.72;23.02;;;6.70;99.90;;;;;;5030026;28;20033;-80
2021/11/16 09:00:49;;;;;;;45.78;23.13;;;6.80;99.90;;;;;;5027189;28;20045;-78
2021/11/16 09:03:26;;;;;;;40.88;21.98;;;6.80;99.90;;;;;;5030411;28;20036;-79
2021/11/16 09:05:53;;;;;;;40.63;21.20;;;6.80;99.90;;;;;;5015046;28;20041;-78
2021/11/16 09:08:25;;;;;;;42.08;23.33;;;6.80;99.90;;;;;;5010451;28;20427;-78
2021/11/16 09:10:55;;;;;;;42.80;22.27;;;6.80;99.90;;;;;;5027358;28;20025;-79
2021/11/16 09:13:22;;;;;;;38.95;21.83;;;6.80;99.90;;;;;;5022631;28;20482;-79
2021/11/16 09:15:51;;;;;;;40.92;21.20;;;6.80;99.90;;;;;;5011013;28;20034;-79
2021/11/16 09:18:28;;;;;;;42.35;22.33;;;6.90;99.90;;;;;;5023297;28;20056;-80
2021/11/16 09:21:01;;;;;;;36.33;21.95;;;6.90;99.90;;;;;;5033469;28;20037;-80
2021/11/16 09:23:36;;;;;;;39.55;20.88;;;6.90;99.90;;;;;;5036966;28;20068;-79
2021/11/16 09:26:06;;;;;;;37.95;22.02;;;6.90;99.80;;;;;;5034785;28;20113;-80
2021/11/16 09:28:35;;;;;;;36.58;21.15;;;7.00;99.70;;;;;;5034236;28;20037;-79
2021/11/16 09:31:16;;;;;;;36.78;20.33;;;7.00;99.70;;;;;;5028138;28;20116;-80
2021/11/16 09:33:42;;;;;;;35.25;20.80;;;7.10;99.80;;;;;;5023927;28;20029;-79
2021/11/16 09:36:08;;;;;;;35.22;19.38;;;7.00;99.50;;;;;;5020146;28;20044;-79
2021/11/16 09:38:44;;;;;;;32.80;19.30;;;7.10;99.40;;;;;;5024677;28;20141;-79
2021/11/16 09:41:13;;;;;;;36.70;19.42;;;7.10;99.30;;;;;;5032162;28;20038;-79
2021/11/16 09:43:38;;;;;;;41.88;21.27;;;7.20;99.10;;;;;;5031571;28;20091;-80
2021/11/16 09:46:10;;;;;;;43.03;22.20;;;7.20;99.10;;;;;;5033951;28;20392;-80
2021/11/16 09:48:38;;;;;;;44.95;22.20;;;7.20;99.10;;;;;;5031944;28;20025;-80
2021/11/16 09:51:19;;;;;;;41.50;21.40;;;7.10;99.20;;;;;;5034582;28;20053;-79
2021/11/16 09:53:45;;;;;;;39.35;21.77;;;7.20;99.30;;;;;;5033359;28;20025;-79
2021/11/16 09:56:24;;;;;;;46.63;24.35;;;7.20;99.20;;;;;;5030808;28;20709;-80
2021/11/16 09:58:51;;;;;;;45.60;23.73;;;7.20;99.20;;;;;;5032034;28;20033;-79
2021/11/16 10:01:25;;;;;;;46.33;25.42;;;7.30;99.20;;;;;;5029996;28;20033;-79
2021/11/16 10:04:05;;;;;;;54.63;25.83;;;7.30;99.40;;;;;;5030438;28;20152;-80
2021/11/16 10:06:31;;;;;;;48.97;23.88;;;7.30;99.50;;;;;;5020115;28;20119;-80
2021/11/16 10:08:57;;;;;;;40.53;23.60;;;7.30;99.40;;;;;;5025794;28;20041;-79
2021/11/16 10:11:22;;;;;;;40.08;22.30;;;7.30;99.40;;;;;;5009968;28;20616;-79
2021/11/16 10:13:48;;;;;;;44.95;23.67;;;7.30;99.30;;;;;;5018858;28;20304;-79
2021/11/16 10:16:13;;;;;;;47.92;25.23;;;7.40;99.20;;;;;;5029171;28;20071;-79
2021/11/16 10:18:41;;;;;;;46.05;25.38;;;7.40;99.10;;;;;;5014853;28;20046;-80
2021/11/16 10:21:08;;;;;;;51.50;25.55;;;7.50;99.20;;;;;;5010540;28;20030;-79
2021/11/16 10:23:35;;;;;;;43.05;23.60;;;7.50;99.20;;;;;;5021908;28;20033;-80
2021/11/16 10:26:02;;;;;;;46.85;24.17;;;7.60;98.90;;;;;;5028005;28;20032;-80
2021/11/16 10:28:31;;;;;;;46.35;23.42;;;7.60;98.80;;;;;;5028134;28;20040;-80
2021/11/16 10:30:59;;;;;;;47.72;23.90;;;7.60;98.60;;;;;;5020116;28;20221;-80
2021/11/16 10:33:27;;;;;;;46.63;25.10;;;7.60;98.50;;;;;;5017874;28;20067;-80
2021/11/16 10:35:57;;;;;;;44.58;22.52;;;7.70;98.20;;;;;;5021745;28;20037;-80
2021/11/16 10:38:37;;;;;;;46.15;23.02;;;7.60;98.30;;;;;;5029204;28;20032;-80
2021/11/16 10:41:08;;;;;;;47.03;23.17;;;7.60;98.50;;;;;;5027296;28;20634;-79
2021/11/16 10:43:37;;;;;;;41.35;22.55;;;7.60;98.60;;;;;;5029235;28;20025;-80
2021/11/16 10:46:05;;;;;;;41.20;23.23;;;7.70;98.50;;;;;;5025452;28;20047;-80
2021/11/16 10:48:31;;;;;;;50.15;24.50;;;7.70;98.50;;;;;;5014111;28;20038;-80
2021/11/16 10:50:57;;;;;;;44.30;23.13;;;7.70;98.80;;;;;;5031853;28;20362;-80
2021/11/16 10:53:26;;;;;;;48.47;25.27;;;7.80;98.90;;;;;;5007215;28;20025;-80
2021/11/16 10:55:54;;;;;;;44.95;23.55;;;7.90;98.50;;;;;;5021070;28;20060;-79
2021/11/16 10:58:24;;;;;;;45.58;21.73;;;7.90;98.50;;;;;;5027980;28;20051;-80
2021/11/16 11:01:00;;;;;;;41.58;22.95;;;8.00;98.30;;;;;;5025002;28;20112;-80
2021/11/16 11:03:39;;;;;;;44.97;22.52;;;8.10;98.40;;;;;;5011092;28;20037;-80
2021/11/16 11:06:09;;;;;;;45.92;23.40;;;8.20;98.40;;;;;;5029104;28;20026;-80
2021/11/16 11:08:40;;;;;;;41.90;23.00;;;8.20;98.30;;;;;;5026573;28;20091;-80
2021/11/16 11:11:13;;;;;;;40.85;22.13;;;8.30;98.20;;;;;;5028300;28;20045;-81
2021/11/16 11:13:39;;;;;;;40.85;23.40;;;8.40;97.90;;;;;;5014015;28;20049;-80
2021/11/16 11:16:10;;;;;;;41.65;23.58;;;8.50;97.90;;;;;;5009675;28;20026;-80
2021/11/16 11:18:40;;;;;;;40.33;22.13;;;8.60;97.90;;;;;;5020660;28;20060;-81
2021/11/16 11:21:10;;;;;;;44.70;24.15;;;8.60;96.90;;;;;;5025247;28;20378;-81
2021/11/16 11:23:45;;;;;;;39.70;23.10;;;8.70;97.30;;;;;;5008692;28;20038;-79
2021/11/16 11:29:20;;;;;;;43.53;22.10;;;8.80;96.90;;;;;;5033705;28;20110;-80
2021/11/16 11:31:50;;;;;;;43.33;22.23;;;8.80;96.80;;;;;;5019984;28;20090;-82
2021/11/16 11:34:17;;;;;;;37.20;21.65;;;8.90;96.70;;;;;;5026239;28;20025;-81
2021/11/16 11:36:43;;;;;;;41.33;23.83;;;8.90;96.70;;;;;;5021129;28;20037;-80
2021/11/16 11:39:17;;;;;;;38.78;21.25;;;9.00;96.70;;;;;;5027614;28;20032;-80
2021/11/16 11:41:48;;;;;;;42.65;22.83;;;9.00;96.70;;;;;;5021270;28;20112;-82
2021/11/16 11:44:15;;;;;;;44.70;22.63;;;9.00;96.80;;;;;;5028139;28;20048;-81
2021/11/16 11:46:53;;;;;;;43.13;22.13;;;9.00;96.60;;;;;;5026799;28;20108;-80
2021/11/16 11:49:20;;;;;;;41.28;22.40;;;9.10;96.40;;;;;;5026850;28;20052;-80
2021/11/16 11:51:46;;;;;;;38.20;21.80;;;9.10;96.30;;;;;;5026859;28;20037;-81
2021/11/16 11:54:13;;;;;;;43.30;23.25;;;9.10;96.20;;;;;;5026992;28;20071;-81
2021/11/16 11:56:39;;;;;;;37.80;22.50;;;9.10;96.30;;;;;;5017596;28;20083;-81
2021/11/16 11:59:04;;;;;;;39.83;23.55;;;9.20;96.20;;;;;;5014002;28;20100;-81
2021/11/16 12:01:30;;;;;;;37.85;22.35;;;9.10;96.10;;;;;;5026039;28;20033;-81
2021/11/16 12:03:58;;;;;;;37.33;21.42;;;9.20;96.10;;;;;;5016829;28;20490;-81
2021/11/16 12:06:24;;;;;;;38.83;20.50;;;9.20;96.30;;;;;;5015304;28;20029;-80
2021/11/16 12:08:56;;;;;;;32.97;19.42;;;9.20;96.30;;;;;;5027463;28;20037;-80
2021/11/16 12:11:22;;;;;;;41.90;22.40;;;9.20;96.20;;;;;;5010983;28;20037;-80
2021/11/16 12:13:48;;;;;;;41.83;21.30;;;9.20;96.40;;;;;;5023609;28;20095;-80
2021/11/16 12:16:21;;;;;;;42.78;21.75;;;9.20;96.10;;;;;;5010290;28;20042;-83
2021/11/16 12:18:50;;;;;;;;;;;9.20;96.20;;;;;;5008419;28;20466;-81
2021/11/16 12:21:32;;;;;;;37.85;20.75;;;9.20;96.20;;;;;;5020854;28;19916;-80
2021/11/16 12:24:01;;;;;;;35.67;19.05;;;9.20;96.40;;;;;;5015789;28;20030;-80
2021/11/16 12:26:29;;;;;;;40.60;20.83;;;9.20;96.50;;;;;;5026583;28;20511;-81
2021/11/16 12:29:15;;;;;;;41.78;21.67;;;9.30;96.20;;;;;;5010884;28;20034;-81
2021/11/16 12:31:42;;;;;;;39.80;21.27;;;9.30;96.10;;;;;;5029108;28;20044;-79
2021/11/16 12:34:08;;;;;;;39.67;20.23;;;9.30;96.00;;;;;;5050787;28;20070;-79
2021/11/16 12:36:33;;;;;;;42.30;22.33;;;9.30;96.30;;;;;;5033536;28;20029;-81
2021/11/16 12:39:20;;;;;;;41.05;22.08;;;9.30;96.60;;;;;;5030504;28;20437;-79
2021/11/16 12:41:50;;;;;;;37.25;20.88;;;9.30;96.20;;;;;;5016400;28;20044;-80
2021/11/16 12:44:30;;;;;;;43.83;21.40;;;9.30;96.00;;;;;;5029208;28;20025;-79
2021/11/16 12:47:09;;;;;;;41.38;21.63;;;9.30;96.00;;;;;;5024637;28;20030;-80
2021/11/16 12:49:36;;;;;;;43.80;22.45;;;9.40;96.00;;;;;;5031668;28;20025;-81
2021/11/16 12:52:06;;;;;;;45.25;22.35;;;9.40;95.80;;;;;;5032041;28;20021;-81
2021/11/16 12:54:34;;;;;;;40.33;22.15;;;9.40;96.10;;;;;;5036199;28;20037;-80
2021/11/16 12:57:00;;;;;;;40.10;21.92;;;9.40;96.20;;;;;;5034113;28;20034;-80